sensor_id;sensor_type;location;lat;lon;timestamp;P1;durP1;ratioP1;P2;durP2;ratioP2
32746;SDS011;19118;50.860;13.662;2022-08-01T00:02:58;2.53;;;2.13;;
32746;SDS011;19118;50.860;13.662;2022-08-01T00:07:58;4.10;;;2.23;;
32746;SDS011;19118;50.860;13.662;2022-08-01T00:12:59;1.90;;;1.70;;
32746;SDS011;19118;50.860;13.662;2022-08-01T00:17:59;4.50;;;2.03;;
32746;SDS011;19118;50.860;13.662;2022-08-01T00:23:01;12.63;;;2.05;;
32746;SDS011;19118;50.860;13.662;2022-08-01T00:28:03;5.57;;;2.65;;
32746;SDS011;19118;50.860;13.662;2022-08-01T00:33:03;4.57;;;2.42;;
32746;SDS011;19118;50.860;13.662;2022-08-01T00:38:03;3.47;;;2.13;;
32746;SDS011;19118;50.860;13.662;2022-08-01T00:43:04;4.35;;;2.67;;
32746;SDS011;19118;50.860;13.662;2022-08-01T00:48:04;3.35;;;2.55;;
32746;SDS011;19118;50.860;13.662;2022-08-01T00:53:05;6.30;;;2.47;;
32746;SDS011;19118;50.860;13.662;2022-08-01T00:58:05;3.15;;;2.00;;
32746;SDS011;19118;50.860;13.662;2022-08-01T01:03:06;7.47;;;3.10;;
32746;SDS011;19118;50.860;13.662;2022-08-01T01:08:08;4.75;;;2.20;;
32746;SDS011;19118;50.860;13.662;2022-08-01T01:13:18;5.00;;;2.53;;
32746;SDS011;19118;50.860;13.662;2022-08-01T01:18:24;6.10;;;2.97;;
32746;SDS011;19118;50.860;13.662;2022-08-01T01:34:19;5.03;;;2.65;;
32746;SDS011;19118;50.860;13.662;2022-08-01T01:39:21;8.68;;;4.18;;
32746;SDS011;19118;50.860;13.662;2022-08-01T01:44:26;5.30;;;2.85;;
32746;SDS011;19118;50.860;13.662;2022-08-01T01:49:28;17.05;;;2.42;;
32746;SDS011;19118;50.860;13.662;2022-08-01T01:54:31;6.47;;;2.78;;
32746;SDS011;19118;50.860;13.662;2022-08-01T01:59:35;5.28;;;2.97;;
32746;SDS011;19118;50.860;13.662;2022-08-01T02:04:39;4.78;;;2.83;;
32746;SDS011;19118;50.860;13.662;2022-08-01T02:09:42;4.40;;;2.60;;
32746;SDS011;19118;50.860;13.662;2022-08-01T02:14:44;6.05;;;2.65;;
32746;SDS011;19118;50.860;13.662;2022-08-01T02:19:46;3.00;;;2.58;;
32746;SDS011;19118;50.860;13.662;2022-08-01T02:25:06;3.85;;;2.40;;
32746;SDS011;19118;50.860;13.662;2022-08-01T02:30:14;5.00;;;2.53;;
32746;SDS011;19118;50.860;13.662;2022-08-01T02:35:23;4.68;;;3.00;;
32746;SDS011;19118;50.860;13.662;2022-08-01T02:40:27;6.20;;;3.58;;
32746;SDS011;19118;50.860;13.662;2022-08-01T02:45:29;2.58;;;2.30;;
32746;SDS011;19118;50.860;13.662;2022-08-01T02:50:31;9.60;;;2.90;;
32746;SDS011;19118;50.860;13.662;2022-08-01T02:55:33;5.80;;;3.25;;
32746;SDS011;19118;50.860;13.662;2022-08-01T03:00:35;5.32;;;2.83;;
32746;SDS011;19118;50.860;13.662;2022-08-01T03:05:35;3.72;;;2.88;;
32746;SDS011;19118;50.860;13.662;2022-08-01T03:10:40;11.35;;;3.15;;
32746;SDS011;19118;50.860;13.662;2022-08-01T03:15:44;6.15;;;3.90;;
32746;SDS011;19118;50.860;13.662;2022-08-01T03:20:46;5.25;;;2.97;;
32746;SDS011;19118;50.860;13.662;2022-08-01T03:25:49;4.50;;;3.03;;
32746;SDS011;19118;50.860;13.662;2022-08-01T03:30:51;6.55;;;3.40;;
32746;SDS011;19118;50.860;13.662;2022-08-01T03:35:53;7.28;;;2.92;;
32746;SDS011;19118;50.860;13.662;2022-08-01T03:41:11;4.85;;;2.97;;
32746;SDS011;19118;50.860;13.662;2022-08-01T03:46:21;4.40;;;2.90;;
32746;SDS011;19118;50.860;13.662;2022-08-01T03:51:26;13.68;;;3.17;;
32746;SDS011;19118;50.860;13.662;2022-08-01T03:56:27;6.40;;;3.40;;
32746;SDS011;19118;50.860;13.662;2022-08-01T04:01:31;6.70;;;2.72;;
32746;SDS011;19118;50.860;13.662;2022-08-01T04:06:36;3.17;;;2.28;;
32746;SDS011;19118;50.860;13.662;2022-08-01T04:11:38;5.50;;;3.03;;
32746;SDS011;19118;50.860;13.662;2022-08-01T04:16:38;4.45;;;2.97;;
32746;SDS011;19118;50.860;13.662;2022-08-01T04:21:39;11.68;;;2.70;;
32746;SDS011;19118;50.860;13.662;2022-08-01T04:26:40;5.30;;;2.70;;
32746;SDS011;19118;50.860;13.662;2022-08-01T04:31:43;7.18;;;3.55;;
32746;SDS011;19118;50.860;13.662;2022-08-01T04:36:47;4.75;;;2.92;;
32746;SDS011;19118;50.860;13.662;2022-08-01T04:41:48;5.88;;;3.38;;
32746;SDS011;19118;50.860;13.662;2022-08-01T04:46:50;10.57;;;2.90;;
32746;SDS011;19118;50.860;13.662;2022-08-01T04:51:55;6.75;;;3.55;;
32746;SDS011;19118;50.860;13.662;2022-08-01T04:56:57;7.57;;;3.03;;
32746;SDS011;19118;50.860;13.662;2022-08-01T05:01:59;4.43;;;2.78;;
32746;SDS011;19118;50.860;13.662;2022-08-01T05:07:00;7.22;;;3.28;;
32746;SDS011;19118;50.860;13.662;2022-08-01T05:12:01;5.75;;;2.85;;
32746;SDS011;19118;50.860;13.662;2022-08-01T05:17:04;5.18;;;3.33;;
32746;SDS011;19118;50.860;13.662;2022-08-01T05:22:07;6.38;;;2.90;;
32746;SDS011;19118;50.860;13.662;2022-08-01T05:27:08;4.15;;;2.97;;
32746;SDS011;19118;50.860;13.662;2022-08-01T05:32:09;6.65;;;2.88;;
32746;SDS011;19118;50.860;13.662;2022-08-01T05:37:09;6.70;;;3.05;;
32746;SDS011;19118;50.860;13.662;2022-08-01T05:42:10;5.57;;;3.00;;
32746;SDS011;19118;50.860;13.662;2022-08-01T05:47:10;5.07;;;2.47;;
32746;SDS011;19118;50.860;13.662;2022-08-01T05:52:11;5.37;;;2.13;;
32746;SDS011;19118;50.860;13.662;2022-08-01T05:57:11;4.82;;;2.92;;
32746;SDS011;19118;50.860;13.662;2022-08-01T06:02:12;8.63;;;2.60;;
32746;SDS011;19118;50.860;13.662;2022-08-01T06:07:12;3.90;;;2.58;;
32746;SDS011;19118;50.860;13.662;2022-08-01T06:12:12;7.40;;;2.37;;
32746;SDS011;19118;50.860;13.662;2022-08-01T06:17:13;4.67;;;2.90;;
32746;SDS011;19118;50.860;13.662;2022-08-01T06:22:13;6.10;;;2.73;;
32746;SDS011;19118;50.860;13.662;2022-08-01T06:27:13;5.07;;;2.87;;
32746;SDS011;19118;50.860;13.662;2022-08-01T06:32:14;5.37;;;4.20;;
32746;SDS011;19118;50.860;13.662;2022-08-01T06:37:14;4.53;;;4.13;;
32746;SDS011;19118;50.860;13.662;2022-08-01T06:42:15;6.15;;;3.55;;
32746;SDS011;19118;50.860;13.662;2022-08-01T06:47:16;4.45;;;3.47;;
32746;SDS011;19118;50.860;13.662;2022-08-01T06:52:16;11.30;;;4.27;;
32746;SDS011;19118;50.860;13.662;2022-08-01T06:57:17;5.23;;;4.17;;
32746;SDS011;19118;50.860;13.662;2022-08-01T07:02:17;4.38;;;3.95;;
32746;SDS011;19118;50.860;13.662;2022-08-01T07:07:17;6.40;;;4.13;;
32746;SDS011;19118;50.860;13.662;2022-08-01T07:12:18;5.90;;;4.83;;
32746;SDS011;19118;50.860;13.662;2022-08-01T07:17:18;7.37;;;5.90;;
32746;SDS011;19118;50.860;13.662;2022-08-01T07:22:20;6.68;;;5.45;;
32746;SDS011;19118;50.860;13.662;2022-08-01T07:27:21;6.90;;;5.20;;
32746;SDS011;19118;50.860;13.662;2022-08-01T07:32:21;12.27;;;7.15;;
32746;SDS011;19118;50.860;13.662;2022-08-01T07:37:21;17.00;;;6.82;;
32746;SDS011;19118;50.860;13.662;2022-08-01T07:42:23;9.82;;;6.80;;
32746;SDS011;19118;50.860;13.662;2022-08-01T07:47:24;8.30;;;7.10;;
32746;SDS011;19118;50.860;13.662;2022-08-01T07:52:25;12.32;;;8.27;;
32746;SDS011;19118;50.860;13.662;2022-08-01T07:57:26;11.30;;;6.55;;
32746;SDS011;19118;50.860;13.662;2022-08-01T08:02:27;8.65;;;7.20;;
32746;SDS011;19118;50.860;13.662;2022-08-01T08:07:27;9.70;;;7.90;;
32746;SDS011;19118;50.860;13.662;2022-08-01T08:12:27;8.73;;;7.83;;
32746;SDS011;19118;50.860;13.662;2022-08-01T08:17:28;9.82;;;6.57;;
32746;SDS011;19118;50.860;13.662;2022-08-01T08:22:28;6.37;;;5.30;;
32746;SDS011;19118;50.860;13.662;2022-08-01T08:27:29;7.53;;;4.72;;
32746;SDS011;19118;50.860;13.662;2022-08-01T08:32:30;5.28;;;4.70;;
32746;SDS011;19118;50.860;13.662;2022-08-01T08:37:30;4.93;;;3.60;;
32746;SDS011;19118;50.860;13.662;2022-08-01T08:42:31;4.63;;;3.67;;
32746;SDS011;19118;50.860;13.662;2022-08-01T08:47:32;6.88;;;4.05;;
32746;SDS011;19118;50.860;13.662;2022-08-01T08:52:33;7.13;;;5.25;;
32746;SDS011;19118;50.860;13.662;2022-08-01T08:57:39;10.65;;;6.45;;
32746;SDS011;19118;50.860;13.662;2022-08-01T09:02:40;14.13;;;7.90;;
32746;SDS011;19118;50.860;13.662;2022-08-01T09:07:45;6.65;;;5.97;;
32746;SDS011;19118;50.860;13.662;2022-08-01T09:13:04;8.40;;;6.60;;
32746;SDS011;19118;50.860;13.662;2022-08-01T09:18:07;7.50;;;5.75;;
32746;SDS011;19118;50.860;13.662;2022-08-01T09:23:10;6.32;;;5.22;;
32746;SDS011;19118;50.860;13.662;2022-08-01T09:28:36;4.00;;;3.65;;
32746;SDS011;19118;50.860;13.662;2022-08-01T09:33:48;2.88;;;2.55;;
32746;SDS011;19118;50.860;13.662;2022-08-01T09:39:11;2.90;;;2.47;;
32746;SDS011;19118;50.860;13.662;2022-08-01T09:44:14;2.60;;;2.17;;
32746;SDS011;19118;50.860;13.662;2022-08-01T09:49:26;2.03;;;1.85;;
32746;SDS011;19118;50.860;13.662;2022-08-01T09:54:29;2.13;;;1.92;;
32746;SDS011;19118;50.860;13.662;2022-08-01T09:59:35;1.85;;;1.75;;
32746;SDS011;19118;50.860;13.662;2022-08-01T10:04:48;3.60;;;2.08;;
32746;SDS011;19118;50.860;13.662;2022-08-01T10:09:49;6.00;;;1.93;;
32746;SDS011;19118;50.860;13.662;2022-08-01T10:14:50;0.97;;;0.87;;
32746;SDS011;19118;50.860;13.662;2022-08-01T10:19:52;1.05;;;0.82;;
32746;SDS011;19118;50.860;13.662;2022-08-01T10:24:55;1.10;;;1.00;;
32746;SDS011;19118;50.860;13.662;2022-08-01T10:29:58;3.35;;;1.25;;
32746;SDS011;19118;50.860;13.662;2022-08-01T10:35:04;1.00;;;0.70;;
32746;SDS011;19118;50.860;13.662;2022-08-01T10:40:05;1.10;;;0.65;;
32746;SDS011;19118;50.860;13.662;2022-08-01T10:45:07;0.93;;;0.68;;
32746;SDS011;19118;50.860;13.662;2022-08-01T10:50:20;0.60;;;0.60;;
32746;SDS011;19118;50.860;13.662;2022-08-01T10:55:44;0.60;;;0.52;;
32746;SDS011;19118;50.860;13.662;2022-08-01T11:11:33;1.27;;;0.60;;
32746;SDS011;19118;50.860;13.662;2022-08-01T11:33:17;0.93;;;0.40;;
32746;SDS011;19118;50.860;13.662;2022-08-01T11:38:25;0.75;;;0.50;;
32746;SDS011;19118;50.860;13.662;2022-08-01T11:43:28;0.90;;;0.60;;
32746;SDS011;19118;50.860;13.662;2022-08-01T11:48:28;2.97;;;0.70;;
32746;SDS011;19118;50.860;13.662;2022-08-01T11:53:29;2.58;;;0.50;;
32746;SDS011;19118;50.860;13.662;2022-08-01T11:58:30;4.68;;;0.80;;
32746;SDS011;19118;50.860;13.662;2022-08-01T12:03:31;1.83;;;0.60;;
32746;SDS011;19118;50.860;13.662;2022-08-01T12:08:33;3.80;;;0.70;;
32746;SDS011;19118;50.860;13.662;2022-08-01T12:13:41;4.85;;;0.70;;
32746;SDS011;19118;50.860;13.662;2022-08-01T12:18:43;1.85;;;0.80;;
32746;SDS011;19118;50.860;13.662;2022-08-01T12:23:43;0.82;;;0.70;;
32746;SDS011;19118;50.860;13.662;2022-08-01T12:28:43;1.92;;;0.75;;
32746;SDS011;19118;50.860;13.662;2022-08-01T12:33:44;1.17;;;1.00;;
32746;SDS011;19118;50.860;13.662;2022-08-01T12:38:44;8.67;;;0.60;;
32746;SDS011;19118;50.860;13.662;2022-08-01T12:43:52;4.55;;;0.70;;
32746;SDS011;19118;50.860;13.662;2022-08-01T12:48:53;2.28;;;0.65;;
32746;SDS011;19118;50.860;13.662;2022-08-01T12:53:53;6.50;;;0.73;;
32746;SDS011;19118;50.860;13.662;2022-08-01T12:58:53;1.23;;;0.80;;
32746;SDS011;19118;50.860;13.662;2022-08-01T13:03:59;1.35;;;0.77;;
32746;SDS011;19118;50.860;13.662;2022-08-01T13:09:10;6.72;;;0.77;;
32746;SDS011;19118;50.860;13.662;2022-08-01T13:14:28;2.25;;;0.90;;
32746;SDS011;19118;50.860;13.662;2022-08-01T13:19:44;1.15;;;0.60;;
32746;SDS011;19118;50.860;13.662;2022-08-01T13:24:45;0.60;;;0.50;;
32746;SDS011;19118;50.860;13.662;2022-08-01T13:29:45;0.40;;;0.40;;
32746;SDS011;19118;50.860;13.662;2022-08-01T13:34:47;1.10;;;0.55;;
32746;SDS011;19118;50.860;13.662;2022-08-01T13:39:48;1.42;;;0.80;;
32746;SDS011;19118;50.860;13.662;2022-08-01T13:44:48;1.05;;;0.60;;
32746;SDS011;19118;50.860;13.662;2022-08-01T13:49:49;0.50;;;0.50;;
32746;SDS011;19118;50.860;13.662;2022-08-01T13:54:49;0.60;;;0.40;;
32746;SDS011;19118;50.860;13.662;2022-08-01T13:59:49;0.53;;;0.40;;
32746;SDS011;19118;50.860;13.662;2022-08-01T14:04:51;0.30;;;0.30;;
32746;SDS011;19118;50.860;13.662;2022-08-01T14:09:51;0.57;;;0.40;;
32746;SDS011;19118;50.860;13.662;2022-08-01T14:14:51;0.43;;;0.40;;
32746;SDS011;19118;50.860;13.662;2022-08-01T14:19:52;3.33;;;0.30;;
32746;SDS011;19118;50.860;13.662;2022-08-01T14:24:52;2.57;;;0.50;;
32746;SDS011;19118;50.860;13.662;2022-08-01T14:29:52;0.47;;;0.47;;
32746;SDS011;19118;50.860;13.662;2022-08-01T14:34:53;4.87;;;0.53;;
32746;SDS011;19118;50.860;13.662;2022-08-01T14:39:53;0.80;;;0.50;;
32746;SDS011;19118;50.860;13.662;2022-08-01T14:44:53;1.13;;;0.63;;
32746;SDS011;19118;50.860;13.662;2022-08-01T14:49:54;9.23;;;1.60;;
32746;SDS011;19118;50.860;13.662;2022-08-01T14:54:54;0.70;;;0.70;;
32746;SDS011;19118;50.860;13.662;2022-08-01T14:59:54;1.63;;;0.87;;
32746;SDS011;19118;50.860;13.662;2022-08-01T15:04:55;6.40;;;1.17;;
32746;SDS011;19118;50.860;13.662;2022-08-01T15:09:55;1.70;;;1.00;;
32746;SDS011;19118;50.860;13.662;2022-08-01T15:14:56;6.35;;;0.90;;
32746;SDS011;19118;50.860;13.662;2022-08-01T15:20:01;1.83;;;0.90;;
32746;SDS011;19118;50.860;13.662;2022-08-01T15:25:04;0.73;;;0.70;;
32746;SDS011;19118;50.860;13.662;2022-08-01T15:30:05;0.82;;;0.82;;
32746;SDS011;19118;50.860;13.662;2022-08-01T15:35:06;5.05;;;1.10;;
32746;SDS011;19118;50.860;13.662;2022-08-01T15:40:10;3.88;;;0.93;;
32746;SDS011;19118;50.860;13.662;2022-08-01T15:45:11;2.00;;;1.20;;
32746;SDS011;19118;50.860;13.662;2022-08-01T15:50:16;1.05;;;0.70;;
32746;SDS011;19118;50.860;13.662;2022-08-01T15:55:16;1.20;;;0.90;;
32746;SDS011;19118;50.860;13.662;2022-08-01T16:00:17;4.72;;;0.85;;
32746;SDS011;19118;50.860;13.662;2022-08-01T16:05:17;3.00;;;0.80;;
32746;SDS011;19118;50.860;13.662;2022-08-01T16:10:17;2.45;;;0.88;;
32746;SDS011;19118;50.860;13.662;2022-08-01T16:15:18;4.67;;;0.70;;
32746;SDS011;19118;50.860;13.662;2022-08-01T16:20:18;5.43;;;0.60;;
32746;SDS011;19118;50.860;13.662;2022-08-01T16:25:18;0.83;;;0.70;;
32746;SDS011;19118;50.860;13.662;2022-08-01T16:30:19;3.20;;;0.70;;
32746;SDS011;19118;50.860;13.662;2022-08-01T16:35:19;0.60;;;0.60;;
32746;SDS011;19118;50.860;13.662;2022-08-01T16:40:19;0.50;;;0.50;;
32746;SDS011;19118;50.860;13.662;2022-08-01T16:45:20;0.80;;;0.60;;
32746;SDS011;19118;50.860;13.662;2022-08-01T16:50:20;1.02;;;0.90;;
32746;SDS011;19118;50.860;13.662;2022-08-01T16:55:20;0.80;;;0.80;;
32746;SDS011;19118;50.860;13.662;2022-08-01T17:00:22;1.27;;;0.70;;
32746;SDS011;19118;50.860;13.662;2022-08-01T17:05:25;0.95;;;0.63;;
32746;SDS011;19118;50.860;13.662;2022-08-01T17:10:25;0.50;;;0.50;;
32746;SDS011;19118;50.860;13.662;2022-08-01T17:15:25;3.63;;;0.93;;
32746;SDS011;19118;50.860;13.662;2022-08-01T17:20:26;5.03;;;1.15;;
32746;SDS011;19118;50.860;13.662;2022-08-01T17:25:26;1.40;;;0.60;;
32746;SDS011;19118;50.860;13.662;2022-08-01T17:30:27;0.83;;;0.60;;
32746;SDS011;19118;50.860;13.662;2022-08-01T17:35:27;3.95;;;0.70;;
32746;SDS011;19118;50.860;13.662;2022-08-01T17:40:28;6.05;;;0.77;;
32746;SDS011;19118;50.860;13.662;2022-08-01T17:45:28;3.25;;;0.80;;
32746;SDS011;19118;50.860;13.662;2022-08-01T17:50:28;0.80;;;0.60;;
32746;SDS011;19118;50.860;13.662;2022-08-01T17:55:29;1.83;;;0.67;;
32746;SDS011;19118;50.860;13.662;2022-08-01T18:00:29;2.57;;;1.00;;
32746;SDS011;19118;50.860;13.662;2022-08-01T18:05:32;1.05;;;0.60;;
32746;SDS011;19118;50.860;13.662;2022-08-01T18:10:35;1.48;;;0.73;;
32746;SDS011;19118;50.860;13.662;2022-08-01T18:15:36;6.60;;;1.00;;
32746;SDS011;19118;50.860;13.662;2022-08-01T18:20:38;4.05;;;0.75;;
32746;SDS011;19118;50.860;13.662;2022-08-01T18:25:39;4.77;;;0.70;;
32746;SDS011;19118;50.860;13.662;2022-08-01T18:30:40;4.20;;;1.25;;
32746;SDS011;19118;50.860;13.662;2022-08-01T18:35:40;0.65;;;0.65;;
32746;SDS011;19118;50.860;13.662;2022-08-01T18:40:40;1.20;;;0.97;;
32746;SDS011;19118;50.860;13.662;2022-08-01T18:45:42;0.98;;;0.57;;
32746;SDS011;19118;50.860;13.662;2022-08-01T18:50:42;0.68;;;0.68;;
32746;SDS011;19118;50.860;13.662;2022-08-01T18:55:43;5.18;;;1.17;;
32746;SDS011;19118;50.860;13.662;2022-08-01T19:00:43;6.33;;;1.13;;
32746;SDS011;19118;50.860;13.662;2022-08-01T19:05:44;1.75;;;0.80;;
32746;SDS011;19118;50.860;13.662;2022-08-01T19:10:44;2.57;;;0.87;;
32746;SDS011;19118;50.860;13.662;2022-08-01T19:15:44;1.20;;;0.70;;
32746;SDS011;19118;50.860;13.662;2022-08-01T19:20:45;1.00;;;0.57;;
32746;SDS011;19118;50.860;13.662;2022-08-01T19:25:45;1.05;;;0.73;;
32746;SDS011;19118;50.860;13.662;2022-08-01T19:30:45;1.90;;;0.82;;
32746;SDS011;19118;50.860;13.662;2022-08-01T19:35:46;0.77;;;0.60;;
32746;SDS011;19118;50.860;13.662;2022-08-01T19:40:51;7.50;;;0.70;;
32746;SDS011;19118;50.860;13.662;2022-08-01T19:45:52;1.60;;;0.80;;
32746;SDS011;19118;50.860;13.662;2022-08-01T19:50:53;0.80;;;0.70;;
32746;SDS011;19118;50.860;13.662;2022-08-01T19:55:55;5.75;;;0.90;;
32746;SDS011;19118;50.860;13.662;2022-08-01T20:00:57;3.63;;;0.88;;
32746;SDS011;19118;50.860;13.662;2022-08-01T20:05:59;0.80;;;0.65;;
32746;SDS011;19118;50.860;13.662;2022-08-01T20:11:02;2.47;;;0.70;;
32746;SDS011;19118;50.860;13.662;2022-08-01T20:16:10;0.60;;;0.60;;
32746;SDS011;19118;50.860;13.662;2022-08-01T20:21:11;1.07;;;0.70;;
32746;SDS011;19118;50.860;13.662;2022-08-01T20:26:15;1.08;;;0.80;;
32746;SDS011;19118;50.860;13.662;2022-08-01T20:31:17;2.35;;;0.90;;
32746;SDS011;19118;50.860;13.662;2022-08-01T20:36:18;3.35;;;0.95;;
32746;SDS011;19118;50.860;13.662;2022-08-01T20:41:20;3.03;;;0.83;;
32746;SDS011;19118;50.860;13.662;2022-08-01T20:46:26;5.07;;;0.80;;
32746;SDS011;19118;50.860;13.662;2022-08-01T20:51:28;3.53;;;1.00;;
32746;SDS011;19118;50.860;13.662;2022-08-01T21:07:02;2.42;;;1.10;;
32746;SDS011;19118;50.860;13.662;2022-08-01T21:12:10;1.77;;;0.70;;
32746;SDS011;19118;50.860;13.662;2022-08-01T21:17:28;2.67;;;1.17;;
32746;SDS011;19118;50.860;13.662;2022-08-01T21:22:37;6.40;;;1.10;;
32746;SDS011;19118;50.860;13.662;2022-08-01T21:27:45;4.80;;;1.08;;
32746;SDS011;19118;50.860;13.662;2022-08-01T21:32:48;1.55;;;1.02;;
32746;SDS011;19118;50.860;13.662;2022-08-01T21:37:49;1.48;;;0.95;;
32746;SDS011;19118;50.860;13.662;2022-08-01T21:42:50;1.73;;;1.20;;
32746;SDS011;19118;50.860;13.662;2022-08-01T21:47:52;9.65;;;1.20;;
32746;SDS011;19118;50.860;13.662;2022-08-01T21:53:13;1.27;;;1.15;;
32746;SDS011;19118;50.860;13.662;2022-08-01T22:03:42;2.28;;;0.98;;
32746;SDS011;19118;50.860;13.662;2022-08-01T22:13:53;1.80;;;1.10;;
32746;SDS011;19118;50.860;13.662;2022-08-01T22:18:56;0.80;;;0.80;;
32746;SDS011;19118;50.860;13.662;2022-08-01T22:23:57;4.38;;;1.10;;
32746;SDS011;19118;50.860;13.662;2022-08-01T22:28:58;4.53;;;1.10;;
32746;SDS011;19118;50.860;13.662;2022-08-01T22:33:58;1.27;;;0.93;;
32746;SDS011;19118;50.860;13.662;2022-08-01T22:38:59;1.67;;;1.10;;
32746;SDS011;19118;50.860;13.662;2022-08-01T22:44:03;2.23;;;1.00;;
32746;SDS011;19118;50.860;13.662;2022-08-01T22:49:18;2.33;;;1.30;;
32746;SDS011;19118;50.860;13.662;2022-08-01T22:54:34;1.13;;;0.98;;
32746;SDS011;19118;50.860;13.662;2022-08-01T22:59:58;2.88;;;1.00;;
32746;SDS011;19118;50.860;13.662;2022-08-01T23:05:05;1.48;;;1.20;;
32746;SDS011;19118;50.860;13.662;2022-08-01T23:10:07;1.80;;;1.17;;
32746;SDS011;19118;50.860;13.662;2022-08-01T23:15:08;4.60;;;1.10;;
32746;SDS011;19118;50.860;13.662;2022-08-01T23:20:10;2.00;;;1.20;;
32746;SDS011;19118;50.860;13.662;2022-08-01T23:25:12;2.08;;;1.20;;
32746;SDS011;19118;50.860;13.662;2022-08-01T23:30:14;1.20;;;1.10;;
32746;SDS011;19118;50.860;13.662;2022-08-01T23:35:14;1.10;;;1.00;;
32746;SDS011;19118;50.860;13.662;2022-08-01T23:40:15;1.00;;;0.90;;
32746;SDS011;19118;50.860;13.662;2022-08-01T23:45:15;1.13;;;1.00;;
32746;SDS011;19118;50.860;13.662;2022-08-01T23:50:16;2.13;;;1.48;;
32746;SDS011;19118;50.860;13.662;2022-08-01T23:55:20;1.83;;;0.95;;
